Terminal Aerodrome Forecast
Issued by NWS

Home | Current Version | Previous Version | Text Only | Print | Product List | Glossary On
Versions: 1 2 3 4 5 6 7 8 9 10 11 12 13 14 15 16
000
FTAK31 PANC 202331
TAFADL
TAF
PADL 202331Z 2100/2124 15008KT P6SM SCT150
     FM211300 VRB04KT P6SM VCFG SCT005 BKN080
     FM211900 09011KT P6SM SCT040 BKN070=

USA.gov is the U.S. government's official web portal to all federal, state and local government web resources and services.